createdAt,value
2022-12-22T00:01:37.496Z,3.78
2022-12-22T00:04:23.997Z,2.78
2022-12-22T00:07:09.169Z,2.17
2022-12-22T00:09:54.064Z,1.60
2022-12-22T00:12:38.871Z,4.85
2022-12-22T00:15:24.019Z,3.17
2022-12-22T00:18:09.023Z,1.33
2022-12-22T00:20:54.379Z,5.00
2022-12-22T00:23:39.740Z,1.80
2022-12-22T00:26:24.941Z,2.45
2022-12-22T00:29:10.300Z,1.15
2022-12-22T00:31:55.149Z,2.67
2022-12-22T00:34:41.256Z,3.13
2022-12-22T00:37:30.987Z,4.93
2022-12-22T00:40:16.635Z,5.10
2022-12-22T00:43:01.928Z,2.17
2022-12-22T00:45:47.191Z,0.82
2022-12-22T00:48:40.908Z,1.02
2022-12-22T00:51:26.297Z,3.38
2022-12-22T00:54:11.440Z,3.92
2022-12-22T00:56:56.545Z,1.77
2022-12-22T00:59:41.519Z,1.48
2022-12-22T01:02:26.843Z,3.45
2022-12-22T01:05:11.981Z,3.53
2022-12-22T01:07:57.219Z,1.10
2022-12-22T01:10:43.177Z,3.08
2022-12-22T01:13:30.004Z,3.85
2022-12-22T01:16:15.012Z,3.00
2022-12-22T01:19:00.412Z,2.10
2022-12-22T01:21:45.281Z,1.95
2022-12-22T01:24:31.452Z,2.97
2022-12-22T01:27:16.604Z,3.03
2022-12-22T01:30:02.046Z,0.35
2022-12-22T01:32:47.165Z,0.40
2022-12-22T01:35:43.140Z,2.38
2022-12-22T01:38:28.271Z,0.73
2022-12-22T01:41:14.721Z,1.45
2022-12-22T01:43:59.879Z,3.30
2022-12-22T01:46:49.515Z,1.35
2022-12-22T01:49:37.771Z,0.90
2022-12-22T01:52:23.287Z,0.30
2022-12-22T01:55:09.026Z,0.50
2022-12-22T01:57:55.164Z,1.20
2022-12-22T02:00:40.517Z,1.60
2022-12-22T02:03:38.875Z,2.70
2022-12-22T02:06:42.545Z,0.85
2022-12-22T02:09:30.584Z,0.93
2022-12-22T02:12:21.036Z,0.85
2022-12-22T02:15:13.193Z,0.93
2022-12-22T02:18:05.384Z,0.30
2022-12-22T02:21:07.310Z,0.50
2022-12-22T02:23:52.217Z,1.20
2022-12-22T02:26:47.766Z,1.98
2022-12-22T02:29:33.836Z,1.00
2022-12-22T02:32:18.915Z,1.75
2022-12-22T02:35:04.160Z,1.35
2022-12-22T02:37:55.333Z,0.80
2022-12-22T02:40:46.245Z,2.85
2022-12-22T02:43:31.079Z,1.42
2022-12-22T02:46:45.210Z,1.02
2022-12-22T02:49:35.699Z,1.08
2022-12-22T02:52:29.461Z,0.43
2022-12-22T02:55:14.556Z,1.75
2022-12-22T02:57:59.749Z,1.20
2022-12-22T03:00:44.765Z,0.65
2022-12-22T03:03:29.901Z,0.80
2022-12-22T03:06:15.295Z,2.17
2022-12-22T03:09:00.184Z,1.00
2022-12-22T03:11:45.000Z,2.05
2022-12-22T03:14:30.117Z,0.82
2022-12-22T03:17:15.032Z,1.63
2022-12-22T03:20:00.266Z,0.85
2022-12-22T03:22:45.249Z,1.98
2022-12-22T03:25:30.346Z,1.65
2022-12-22T03:28:02.177Z,1.60
2022-12-22T03:30:28.915Z,0.50
2022-12-22T03:32:55.375Z,0.75
2022-12-22T03:35:21.853Z,0.40
2022-12-22T03:37:48.364Z,0.35
2022-12-22T03:40:14.944Z,0.60
2022-12-22T03:42:59.780Z,0.75
2022-12-22T03:45:44.601Z,0.85
2022-12-22T03:48:11.087Z,0.77
2022-12-22T03:50:37.601Z,1.50
2022-12-22T03:53:04.401Z,1.17
2022-12-22T03:55:31.025Z,2.75
2022-12-22T03:57:57.496Z,2.60
2022-12-22T04:00:24.043Z,1.98
2022-12-22T04:02:50.624Z,1.55
2022-12-22T04:05:17.346Z,1.10
2022-12-22T04:07:43.919Z,1.65
2022-12-22T04:10:28.902Z,1.52
2022-12-22T04:12:55.470Z,1.80
2022-12-22T04:15:29.219Z,1.73
2022-12-22T04:20:22.894Z,1.23
2022-12-22T04:22:49.575Z,1.30
2022-12-22T04:25:16.266Z,0.57
2022-12-22T04:27:42.813Z,0.30
2022-12-22T04:30:09.664Z,0.75
2022-12-22T04:32:36.248Z,1.27
2022-12-22T04:35:02.874Z,0.75
2022-12-22T04:37:29.444Z,0.20
2022-12-22T04:39:55.936Z,0.70
2022-12-22T04:42:22.461Z,0.38
2022-12-22T04:44:49.754Z,0.73
2022-12-22T04:47:16.333Z,1.48
2022-12-22T04:49:42.911Z,2.00
2022-12-22T04:52:09.434Z,0.73
2022-12-22T04:54:35.896Z,0.30
2022-12-22T04:57:02.601Z,0.93
2022-12-22T04:59:29.103Z,0.35
2022-12-22T05:01:55.842Z,1.02
2022-12-22T05:04:24.014Z,2.35
2022-12-22T05:06:50.610Z,1.27
2022-12-22T05:09:17.082Z,1.77
2022-12-22T05:11:43.580Z,0.52
2022-12-22T05:14:10.037Z,0.68
2022-12-22T05:16:36.526Z,0.47
2022-12-22T05:19:03.271Z,1.08
2022-12-22T05:21:29.781Z,1.42
2022-12-22T05:23:56.242Z,1.67
2022-12-22T05:26:22.752Z,2.30
2022-12-22T05:28:49.227Z,0.52
2022-12-22T05:31:17.342Z,1.80
2022-12-22T05:33:44.419Z,2.38
2022-12-22T05:36:11.236Z,0.32
2022-12-22T05:38:38.493Z,0.30
2022-12-22T05:41:05.091Z,2.95
2022-12-22T05:43:32.232Z,0.38
2022-12-22T05:46:01.400Z,0.30
2022-12-22T05:48:33.655Z,1.50
2022-12-22T05:51:03.940Z,0.60
2022-12-22T05:53:30.402Z,0.90
2022-12-22T05:55:58.128Z,2.53
2022-12-22T05:58:24.836Z,0.38
2022-12-22T06:00:51.388Z,0.70
2022-12-22T06:03:18.027Z,1.33
2022-12-22T06:05:44.604Z,0.93
2022-12-22T06:08:11.116Z,0.30
2022-12-22T06:10:37.592Z,0.45
2022-12-22T06:13:04.140Z,2.08
2022-12-22T06:15:30.610Z,4.53
2022-12-22T06:17:57.116Z,0.73
2022-12-22T06:20:23.618Z,0.88
2022-12-22T06:22:50.103Z,1.25
2022-12-22T06:25:18.738Z,0.38
2022-12-22T06:27:45.854Z,0.35
2022-12-22T06:30:12.495Z,1.67
2022-12-22T06:32:39.339Z,1.77
2022-12-22T06:35:07.027Z,0.68
2022-12-22T06:37:33.612Z,1.80
2022-12-22T06:40:00.116Z,0.93
2022-12-22T06:42:44.972Z,0.80
2022-12-22T06:45:11.729Z,0.50
2022-12-22T06:47:38.195Z,0.45
2022-12-22T06:50:05.061Z,0.20
2022-12-22T06:52:31.555Z,1.00
2022-12-22T06:54:58.025Z,0.47
2022-12-22T06:57:24.497Z,0.77
2022-12-22T06:59:57.124Z,0.40
2022-12-22T07:02:24.227Z,0.43
2022-12-22T07:04:50.791Z,2.10
2022-12-22T07:07:17.267Z,3.08
2022-12-22T07:09:43.785Z,2.38
2022-12-22T07:12:10.296Z,1.40
2022-12-22T07:14:36.841Z,1.13
2022-12-22T07:17:03.719Z,0.55
2022-12-22T07:19:30.194Z,1.17
2022-12-22T07:21:56.695Z,0.35
2022-12-22T07:24:26.048Z,2.47
2022-12-22T07:26:53.705Z,2.08
2022-12-22T07:29:20.218Z,1.15
2022-12-22T07:31:46.852Z,1.08
2022-12-22T07:34:13.732Z,0.90
2022-12-22T07:36:40.303Z,3.95
2022-12-22T07:39:06.932Z,1.27
2022-12-22T07:41:51.785Z,2.58
2022-12-22T07:44:18.280Z,2.40
2022-12-22T07:46:44.774Z,0.57
2022-12-22T07:49:29.899Z,1.23
2022-12-22T07:51:57.312Z,2.00
2022-12-22T07:54:23.983Z,3.95
2022-12-22T07:56:50.520Z,1.48
2022-12-22T07:59:17.312Z,2.55
2022-12-22T08:01:45.577Z,1.40
2022-12-22T08:04:13.123Z,3.10
2022-12-22T08:06:39.914Z,0.93
2022-12-22T08:09:07.084Z,5.68
2022-12-22T08:11:34.218Z,1.92
2022-12-22T08:14:01.918Z,4.65
2022-12-22T08:16:29.312Z,2.85
2022-12-22T08:18:56.180Z,1.67
2022-12-22T08:21:22.815Z,6.15
2022-12-22T08:23:49.302Z,6.32
2022-12-22T08:26:22.093Z,2.33
2022-12-22T08:28:53.523Z,0.87
2022-12-22T08:31:20.811Z,3.47
2022-12-22T08:33:47.905Z,3.80
2022-12-22T08:36:14.665Z,5.35
2022-12-22T08:38:42.003Z,2.13
2022-12-22T08:41:12.958Z,2.10
2022-12-22T08:43:39.469Z,4.05
2022-12-22T08:46:06.042Z,2.25
2022-12-22T08:48:32.639Z,3.25
2022-12-22T08:50:59.186Z,3.55
2022-12-22T08:54:03.015Z,4.50
2022-12-22T08:56:12.140Z,3.00
2022-12-22T08:58:40.533Z,6.55
2022-12-22T09:01:07.138Z,3.03
2022-12-22T09:03:33.836Z,4.80
2022-12-22T09:06:03.160Z,3.88
2022-12-22T09:08:29.647Z,1.52
2022-12-22T09:10:56.120Z,3.40
2022-12-22T09:13:22.646Z,2.55
2022-12-22T09:15:49.141Z,2.60
2022-12-22T09:18:15.605Z,3.80
2022-12-22T09:20:42.080Z,3.13
2022-12-22T09:23:08.586Z,2.38
2022-12-22T09:25:35.139Z,3.60
2022-12-22T09:28:01.660Z,4.53
2022-12-22T09:30:28.137Z,5.28
2022-12-22T09:32:54.772Z,3.95
2022-12-22T09:35:21.247Z,6.03
2022-12-22T09:37:48.736Z,3.03
2022-12-22T09:40:15.283Z,4.85
2022-12-22T09:42:41.784Z,3.50
2022-12-22T09:45:17.039Z,6.90
2022-12-22T09:47:45.453Z,5.68
2022-12-22T09:50:15.738Z,15.30
2022-12-22T09:52:49.483Z,5.28
2022-12-22T09:57:42.403Z,4.45
2022-12-22T10:00:15.676Z,2.67
2022-12-22T10:03:05.953Z,2.85
2022-12-22T10:05:38.627Z,3.22
2022-12-22T10:08:10.524Z,6.80
2022-12-22T10:10:37.119Z,5.88
2022-12-22T10:13:05.223Z,2.67
2022-12-22T10:15:36.324Z,3.53
2022-12-22T10:18:16.286Z,6.45
2022-12-22T10:20:45.201Z,3.85
2022-12-22T10:23:17.228Z,2.92
2022-12-22T10:28:53.276Z,2.03
2022-12-22T10:31:22.619Z,2.30
2022-12-22T10:33:50.689Z,4.82
2022-12-22T10:36:22.680Z,4.13
2022-12-22T10:38:58.503Z,1.73
2022-12-22T10:41:26.939Z,6.57
2022-12-22T10:43:56.127Z,4.43
2022-12-22T10:46:34.283Z,3.28
2022-12-22T10:49:09.913Z,3.72
2022-12-22T10:51:36.454Z,2.22
2022-12-22T10:54:02.986Z,4.10
2022-12-22T10:56:30.971Z,4.72
2022-12-22T10:59:05.997Z,2.70
2022-12-22T11:01:36.235Z,3.60
2022-12-22T11:04:35.132Z,2.58
2022-12-22T11:07:01.604Z,3.90
2022-12-22T11:09:35.769Z,5.30
2022-12-22T11:12:14.654Z,6.53
2022-12-22T11:14:53.155Z,3.85
2022-12-22T11:17:28.835Z,6.00
2022-12-22T11:19:58.192Z,3.70
2022-12-22T11:22:33.801Z,3.17
2022-12-22T11:25:22.715Z,3.75
2022-12-22T11:27:54.971Z,2.30
2022-12-22T11:30:27.442Z,3.97
2022-12-22T11:33:11.820Z,4.47
2022-12-22T11:35:44.264Z,3.63
2022-12-22T11:38:10.736Z,5.25
2022-12-22T11:40:37.167Z,10.73
2022-12-22T11:43:22.626Z,3.10
2022-12-22T11:45:57.995Z,4.72
2022-12-22T11:48:36.508Z,3.88
2022-12-22T11:51:25.487Z,4.40
2022-12-22T11:53:56.908Z,2.67
2022-12-22T11:56:24.414Z,7.03
2022-12-22T11:59:09.629Z,6.65
2022-12-22T12:02:14.672Z,4.55
2022-12-22T12:04:59.459Z,5.95
2022-12-22T12:07:28.773Z,2.50
2022-12-22T12:10:07.373Z,2.03
2022-12-22T12:12:36.869Z,3.60
2022-12-22T12:15:06.083Z,2.53
2022-12-22T12:17:50.963Z,5.68
2022-12-22T12:20:25.479Z,3.92
2022-12-22T12:22:52.027Z,2.05
2022-12-22T12:25:28.605Z,5.18
2022-12-22T12:27:55.062Z,3.67
2022-12-22T12:30:39.120Z,6.75
2022-12-22T12:33:08.783Z,4.53
2022-12-22T12:35:53.728Z,5.20
2022-12-22T12:38:47.963Z,5.47
2022-12-22T12:41:13.597Z,2.45
2022-12-22T12:43:40.797Z,7.10
2022-12-22T12:46:46.151Z,7.47
2022-12-22T12:49:31.361Z,5.10
2022-12-22T12:51:57.813Z,7.88
2022-12-22T12:54:27.080Z,6.63
2022-12-22T12:56:56.653Z,5.00
2022-12-22T12:59:52.688Z,10.20
2022-12-22T13:02:28.486Z,6.20
2022-12-22T13:05:13.633Z,10.57
2022-12-22T13:07:58.665Z,8.38
2022-12-22T13:10:25.862Z,3.33
2022-12-22T13:12:53.959Z,13.30
2022-12-22T13:15:34.292Z,4.97
2022-12-22T13:18:02.222Z,3.95
2022-12-22T13:20:36.049Z,3.15
2022-12-22T13:23:04.408Z,4.82
2022-12-22T13:25:41.550Z,6.70
2022-12-22T13:28:13.153Z,4.85
2022-12-22T13:30:39.927Z,3.15
2022-12-22T13:33:11.125Z,4.28
2022-12-22T13:35:47.154Z,3.83
2022-12-22T13:38:28.158Z,6.75
2022-12-22T13:40:54.971Z,2.83
2022-12-22T13:43:21.596Z,4.30
2022-12-22T13:45:50.013Z,5.20
2022-12-22T13:48:19.522Z,2.70
2022-12-22T13:50:51.333Z,5.32
2022-12-22T13:56:38.451Z,7.03
2022-12-22T13:59:05.056Z,4.95
2022-12-22T14:01:31.643Z,7.38
2022-12-22T14:04:03.039Z,7.68
2022-12-22T14:06:37.979Z,5.45
2022-12-22T14:09:20.718Z,10.15
2022-12-22T14:11:53.046Z,5.53
2022-12-22T14:14:23.786Z,13.02
2022-12-22T14:16:51.336Z,6.72
2022-12-22T14:19:18.544Z,6.85
2022-12-22T14:21:46.937Z,7.38
2022-12-22T14:24:17.135Z,5.93
2022-12-22T14:26:43.701Z,9.65
2022-12-22T14:29:14.027Z,7.15
2022-12-22T14:31:53.873Z,11.15
2022-12-22T14:34:28.118Z,9.23
2022-12-22T14:36:54.673Z,6.28
2022-12-22T14:39:23.705Z,7.75
2022-12-22T14:41:52.257Z,7.10
2022-12-22T14:44:18.695Z,9.35
2022-12-22T14:46:48.600Z,7.13
2022-12-22T14:49:16.750Z,8.50
2022-12-22T14:51:43.595Z,11.70
2022-12-22T14:54:19.365Z,9.02
2022-12-22T14:56:50.955Z,7.97
2022-12-22T14:59:27.269Z,6.53
2022-12-22T15:02:16.949Z,6.25
2022-12-22T15:04:43.532Z,8.88
2022-12-22T15:07:54.336Z,5.72
2022-12-22T15:10:20.713Z,9.02
2022-12-22T15:12:48.881Z,9.43
2022-12-22T15:15:17.058Z,9.38
2022-12-22T15:17:48.068Z,9.35
2022-12-22T15:20:16.500Z,7.60
2022-12-22T15:22:43.219Z,7.30
2022-12-22T15:25:13.576Z,8.93
2022-12-22T15:27:40.051Z,9.18
2022-12-22T15:30:06.928Z,4.78
2022-12-22T15:32:37.848Z,6.40
2022-12-22T15:35:11.705Z,5.57
2022-12-22T15:37:38.174Z,10.10
2022-12-22T15:40:06.635Z,11.27
2022-12-22T15:42:33.113Z,9.07
2022-12-22T15:44:59.614Z,7.45
2022-12-22T15:47:26.126Z,6.25
2022-12-22T15:49:52.731Z,3.55
2022-12-22T15:52:19.340Z,6.05
2022-12-22T15:54:45.820Z,10.88
2022-12-22T15:57:13.216Z,5.57
2022-12-22T15:59:39.948Z,4.78
2022-12-22T16:02:10.745Z,4.45
2022-12-22T16:04:37.529Z,2.78
2022-12-22T16:07:04.155Z,5.30
2022-12-22T16:09:32.923Z,8.68
2022-12-22T16:11:59.403Z,5.38
2022-12-22T16:14:25.921Z,9.38
2022-12-22T16:16:52.402Z,6.90
2022-12-22T16:19:19.384Z,7.47
2022-12-22T16:21:47.949Z,5.43
2022-12-22T16:24:21.291Z,4.40
2022-12-22T16:26:47.820Z,3.00
2022-12-22T16:29:15.900Z,7.82
2022-12-22T16:31:42.629Z,6.05
2022-12-22T16:34:12.299Z,7.82
2022-12-22T16:36:38.926Z,6.78
2022-12-22T16:39:05.450Z,4.47
2022-12-22T16:41:31.966Z,8.20
2022-12-22T16:46:43.496Z,7.97
2022-12-22T16:49:10.048Z,9.75
2022-12-22T16:51:40.271Z,7.78
2022-12-22T16:54:06.789Z,5.70
2022-12-22T16:56:34.950Z,8.20
2022-12-22T16:59:04.558Z,5.88
2022-12-22T17:01:39.402Z,6.15
2022-12-22T17:04:14.990Z,4.50
2022-12-22T17:06:41.865Z,3.90
2022-12-22T17:09:13.662Z,6.55
2022-12-22T17:11:40.178Z,4.97
2022-12-22T17:14:13.787Z,7.30
2022-12-22T17:16:40.233Z,7.90
2022-12-22T17:19:06.791Z,7.75
2022-12-22T17:21:33.238Z,4.07
2022-12-22T17:24:04.091Z,4.93
2022-12-22T17:26:32.365Z,7.35
2022-12-22T17:28:59.464Z,6.47
2022-12-22T17:31:26.933Z,5.65
2022-12-22T17:33:53.518Z,3.85
2022-12-22T17:36:29.280Z,6.75
2022-12-22T17:38:55.787Z,6.85
2022-12-22T17:41:22.442Z,15.95
2022-12-22T17:43:48.913Z,9.27
2022-12-22T17:46:16.397Z,6.75
2022-12-22T17:48:43.602Z,6.93
2022-12-22T17:51:15.576Z,6.47
2022-12-22T17:53:42.270Z,10.73
2022-12-22T17:56:13.574Z,14.27
2022-12-22T17:58:40.104Z,6.15
2022-12-22T18:01:06.571Z,9.75
2022-12-22T18:03:33.942Z,4.03
2022-12-22T18:06:00.513Z,7.28
2022-12-22T18:08:27.299Z,5.68
2022-12-22T18:10:53.850Z,10.43
2022-12-22T18:13:21.360Z,6.47
2022-12-22T18:15:47.996Z,8.23
2022-12-22T18:18:15.526Z,3.90
2022-12-22T18:20:42.891Z,5.60
2022-12-22T18:23:28.647Z,4.43
2022-12-22T18:25:55.385Z,6.38
2022-12-22T18:28:21.845Z,6.65
2022-12-22T18:30:48.411Z,5.35
2022-12-22T18:33:14.907Z,4.47
2022-12-22T18:35:41.604Z,6.95
2022-12-22T18:38:21.617Z,5.78
2022-12-22T18:40:48.204Z,9.18
2022-12-22T18:43:14.721Z,10.43
2022-12-22T18:45:41.271Z,10.95
2022-12-22T18:48:08.860Z,16.05
2022-12-22T18:50:35.461Z,10.18
2022-12-22T18:53:03.434Z,8.10
2022-12-22T18:55:31.215Z,13.60
2022-12-22T18:57:58.177Z,7.53
2022-12-22T19:00:26.342Z,9.43
2022-12-22T19:02:53.813Z,8.23
2022-12-22T19:05:21.962Z,9.88
2022-12-22T19:07:48.496Z,11.05
2022-12-22T19:10:19.014Z,6.50
2022-12-22T19:12:49.473Z,11.82
2022-12-22T19:15:21.590Z,9.75
2022-12-22T19:17:48.732Z,9.98
2022-12-22T19:20:16.319Z,10.45
2022-12-22T19:22:43.644Z,6.88
2022-12-22T19:25:17.204Z,6.13
2022-12-22T19:27:44.201Z,4.80
2022-12-22T19:30:14.876Z,6.80
2022-12-22T19:32:45.974Z,6.22
2022-12-22T19:35:13.915Z,5.93
2022-12-22T19:37:40.421Z,11.30
2022-12-22T19:40:07.403Z,11.85
2022-12-22T19:42:35.172Z,4.60
2022-12-22T19:45:08.439Z,5.13
2022-12-22T19:47:37.372Z,8.50
2022-12-22T19:50:04.032Z,5.13
2022-12-22T19:52:30.520Z,9.52
2022-12-22T19:54:56.980Z,6.40
2022-12-22T19:57:23.713Z,12.38
2022-12-22T19:59:51.438Z,10.25
2022-12-22T20:02:21.406Z,7.60
2022-12-22T20:04:48.769Z,8.98
2022-12-22T20:07:19.401Z,12.85
2022-12-22T20:09:45.971Z,14.07
2022-12-22T20:12:23.580Z,9.80
2022-12-22T20:14:50.934Z,4.60
2022-12-22T20:17:18.172Z,13.95
2022-12-22T20:19:44.750Z,10.27
2022-12-22T20:22:15.255Z,5.20
2022-12-22T20:24:41.753Z,8.27
2022-12-22T20:27:16.804Z,13.27
2022-12-22T20:29:43.300Z,5.50
2022-12-22T20:32:12.855Z,6.47
2022-12-22T20:34:39.520Z,9.30
2022-12-22T20:37:06.043Z,9.02
2022-12-22T20:39:35.654Z,11.05
2022-12-22T20:42:02.127Z,7.10
2022-12-22T20:44:28.609Z,5.70
2022-12-22T20:46:57.946Z,6.47
2022-12-22T20:49:24.645Z,10.13
2022-12-22T20:51:51.111Z,9.23
2022-12-22T20:54:17.574Z,8.35
2022-12-22T20:56:44.864Z,9.00
2022-12-22T20:59:13.373Z,7.82
2022-12-22T21:01:40.027Z,7.32
2022-12-22T21:04:08.780Z,13.05
2022-12-22T21:06:37.941Z,9.45
2022-12-22T21:09:04.965Z,12.93
2022-12-22T21:11:31.654Z,14.18
2022-12-22T21:13:58.709Z,9.00
2022-12-22T21:16:26.735Z,12.57
2022-12-22T21:18:55.758Z,8.95
2022-12-22T21:21:22.641Z,9.07
2022-12-22T21:23:49.140Z,6.97
2022-12-22T21:26:20.238Z,9.43
2022-12-22T21:28:46.862Z,8.13
2022-12-22T21:31:13.545Z,5.80
2022-12-22T21:33:40.172Z,6.18
2022-12-22T21:36:14.025Z,11.50
2022-12-22T21:38:40.574Z,10.32
2022-12-22T21:41:07.075Z,31.23
2022-12-22T21:43:33.611Z,20.48
2022-12-22T21:46:00.163Z,33.22
2022-12-22T21:48:26.754Z,46.13
2022-12-22T21:50:53.327Z,26.65
2022-12-22T21:53:22.477Z,23.02
2022-12-22T21:55:49.402Z,22.65
2022-12-22T21:58:16.070Z,54.63
2022-12-22T22:00:44.242Z,20.25
2022-12-22T22:03:10.826Z,17.10
2022-12-22T22:05:38.371Z,22.38
2022-12-22T22:08:06.992Z,15.38
2022-12-22T22:10:34.712Z,12.05
2022-12-22T22:13:01.972Z,11.23
2022-12-22T22:15:29.293Z,12.90
2022-12-22T22:17:58.676Z,13.00
2022-12-22T22:20:31.188Z,7.80
2022-12-22T22:22:58.540Z,9.48
2022-12-22T22:25:25.495Z,4.60
2022-12-22T22:27:52.107Z,11.57
2022-12-22T22:30:22.874Z,5.35
2022-12-22T22:32:49.395Z,7.10
2022-12-22T22:35:16.582Z,5.82
2022-12-22T22:37:45.154Z,7.50
2022-12-22T22:40:13.442Z,4.97
2022-12-22T22:42:40.327Z,8.63
2022-12-22T22:45:07.047Z,6.93
2022-12-22T22:47:35.641Z,5.85
2022-12-22T22:50:06.917Z,4.88
2022-12-22T22:52:33.781Z,6.75
2022-12-22T22:55:00.275Z,5.13
2022-12-22T22:57:26.879Z,7.55
2022-12-22T22:59:53.333Z,5.97
2022-12-22T23:02:20.386Z,5.32
2022-12-22T23:04:47.029Z,9.00
2022-12-22T23:07:13.525Z,8.20
2022-12-22T23:09:40.047Z,10.80
2022-12-22T23:12:06.638Z,8.43
2022-12-22T23:14:33.150Z,8.15
2022-12-22T23:16:59.791Z,6.38
2022-12-22T23:19:26.554Z,10.75
2022-12-22T23:21:53.114Z,7.18
2022-12-22T23:24:19.626Z,6.82
2022-12-22T23:26:46.177Z,7.60
2022-12-22T23:29:12.750Z,5.18
2022-12-22T23:31:39.290Z,7.70
2022-12-22T23:34:05.831Z,8.70
2022-12-22T23:36:32.892Z,8.25
2022-12-22T23:38:59.532Z,10.07
2022-12-22T23:41:26.079Z,9.15
2022-12-22T23:43:53.075Z,4.45
2022-12-22T23:46:19.631Z,7.68
2022-12-22T23:48:50.125Z,7.32
2022-12-22T23:51:16.893Z,8.48
2022-12-22T23:53:43.382Z,6.47
2022-12-22T23:56:09.860Z,5.45
2022-12-22T23:58:36.377Z,11.38
